EPLL/LCJ METAR and TAF weather

Enter ICAO airport designator
Station Type Date Time Source
EPLL METAR 2019/08/19 08:30 UTC NOAA

EPLL 190830Z 25008KT 230V310 9999 FEW026 23/18 Q1015


Station Type Date Time Source
EPLL Decoded METAR 2019/08/19 08:30 UTC NOAA

Station name not available
Aug 19, 2019 - 04:30 AM EDT / 2019.08.19 0830 UTC
Wind: from the WSW (250 degrees) at 9 MPH (8 KT) (direction variable):0
Visibility: greater than 7 mile(s):0
Sky conditions: mostly clear
Temperature: 73 F (23 C)
Dew Point: 64 F (18 C)
Relative Humidity: 73%
Pressure (altimeter): 29.97 in. Hg (1015 hPa)
ob: EPLL 190830Z 25008KT 230V310 9999 FEW026 23/18 Q1015
cycle: 8

Station Type Date Time Source
EPLL TAF 2019/08/19 06:00 UTC NOAA

TAF EPLL 190530Z 1906/2006 25005KT 9999 SCT045
TEMPO 1909/1918 -SHRA BKN025CB
BECMG 1911/1914 32010KT PROB40
TEMPO 1912/1917 29015G30KT 4500 TSRA SCT007 BKN012CB
BECMG 1919/1921 VRB02KT PROB40 1920/2006 3000 BR BKN007

Example: see airport list